Arenas Valley, New Mexico
Current Conditions -  °F | °C
As of 2:15 PM on Monday 22 Dec 2014 (Local Time) from KSVC Reporting Station
Haze Haze  
Wind Chill: 57°   Ceiling: Unl
Heat Index: 57°   Visibility: 3mi
Dew Point: 32°   Wind: 18mph
Humidity: 38%   Direction: 300°WNW
Pressure: 29.85"   Gusts: NA
Location:  32.79°N, 108.18°W
Report Text: KSVC 222115Z AUTO 30016KT 3SM HZ CLR 14/00 A2985 RMK AO2
Loading
Personal Weather Stations






























Interactive Weather Map New forecast layout! Learn more

10-Day Weather Forecast

Advertisements
Track Severe Weather on mobile